sensor_id;sensor_type;location;lat;lon;timestamp;P1;durP1;ratioP1;P2;durP2;ratioP2
70946;SDS011;58605;48.700;8.760;2023-10-13T00:00:57;7.37;;;4.10;;
70946;SDS011;58605;48.700;8.760;2023-10-13T00:03:24;7.43;;;4.40;;
70946;SDS011;58605;48.700;8.760;2023-10-13T00:05:57;5.83;;;4.47;;
70946;SDS011;58605;48.700;8.760;2023-10-13T00:08:28;9.30;;;5.10;;
70946;SDS011;58605;48.700;8.760;2023-10-13T00:10:54;9.43;;;4.87;;
70946;SDS011;58605;48.700;8.760;2023-10-13T00:13:26;9.53;;;4.90;;
70946;SDS011;58605;48.700;8.760;2023-10-13T00:15:53;5.47;;;4.60;;
70946;SDS011;58605;48.700;8.760;2023-10-13T00:18:24;6.67;;;4.70;;
70946;SDS011;58605;48.700;8.760;2023-10-13T00:20:52;9.30;;;4.47;;
70946;SDS011;58605;48.700;8.760;2023-10-13T00:23:22;8.83;;;4.63;;
70946;SDS011;58605;48.700;8.760;2023-10-13T00:25:49;10.10;;;5.30;;
70946;SDS011;58605;48.700;8.760;2023-10-13T00:28:16;6.97;;;4.80;;
70946;SDS011;58605;48.700;8.760;2023-10-13T00:30:52;8.60;;;5.30;;
70946;SDS011;58605;48.700;8.760;2023-10-13T00:33:26;9.23;;;5.40;;
70946;SDS011;58605;48.700;8.760;2023-10-13T00:35:53;6.60;;;4.33;;
70946;SDS011;58605;48.700;8.760;2023-10-13T00:38:22;11.30;;;5.07;;
70946;SDS011;58605;48.700;8.760;2023-10-13T00:40:48;6.50;;;4.67;;
70946;SDS011;58605;48.700;8.760;2023-10-13T00:43:17;7.30;;;4.23;;
70946;SDS011;58605;48.700;8.760;2023-10-13T00:45:44;10.57;;;4.93;;
70946;SDS011;58605;48.700;8.760;2023-10-13T00:48:21;9.33;;;5.07;;
70946;SDS011;58605;48.700;8.760;2023-10-13T00:50:55;6.77;;;4.57;;
70946;SDS011;58605;48.700;8.760;2023-10-13T00:53:23;6.97;;;5.23;;
70946;SDS011;58605;48.700;8.760;2023-10-13T00:55:50;9.10;;;5.00;;
70946;SDS011;58605;48.700;8.760;2023-10-13T00:58:20;8.70;;;5.10;;
70946;SDS011;58605;48.700;8.760;2023-10-13T01:00:48;8.00;;;5.13;;
70946;SDS011;58605;48.700;8.760;2023-10-13T01:03:21;7.03;;;4.73;;
70946;SDS011;58605;48.700;8.760;2023-10-13T01:05:51;8.13;;;4.77;;
70946;SDS011;58605;48.700;8.760;2023-10-13T01:08:21;8.73;;;5.50;;
70946;SDS011;58605;48.700;8.760;2023-10-13T01:11:00;6.23;;;4.93;;
70946;SDS011;58605;48.700;8.760;2023-10-13T01:13:26;7.73;;;4.57;;
70946;SDS011;58605;48.700;8.760;2023-10-13T01:15:52;7.00;;;4.70;;
70946;SDS011;58605;48.700;8.760;2023-10-13T01:18:18;8.60;;;4.97;;
70946;SDS011;58605;48.700;8.760;2023-10-13T01:20:45;9.33;;;4.83;;
70946;SDS011;58605;48.700;8.760;2023-10-13T01:23:18;6.97;;;4.43;;
70946;SDS011;58605;48.700;8.760;2023-10-13T01:25:50;10.67;;;5.00;;
70946;SDS011;58605;48.700;8.760;2023-10-13T01:28:16;8.33;;;4.70;;
70946;SDS011;58605;48.700;8.760;2023-10-13T01:30:43;6.03;;;3.97;;
70946;SDS011;58605;48.700;8.760;2023-10-13T01:33:15;7.13;;;5.27;;
70946;SDS011;58605;48.700;8.760;2023-10-13T01:35:42;7.07;;;4.30;;
70946;SDS011;58605;48.700;8.760;2023-10-13T01:38:13;8.07;;;4.57;;
70946;SDS011;58605;48.700;8.760;2023-10-13T01:40:41;7.73;;;5.00;;
70946;SDS011;58605;48.700;8.760;2023-10-13T01:43:08;8.20;;;4.77;;
70946;SDS011;58605;48.700;8.760;2023-10-13T01:45:36;7.50;;;4.87;;
70946;SDS011;58605;48.700;8.760;2023-10-13T01:48:11;6.10;;;4.03;;
70946;SDS011;58605;48.700;8.760;2023-10-13T01:50:41;9.70;;;5.00;;
70946;SDS011;58605;48.700;8.760;2023-10-13T01:53:07;7.20;;;4.20;;
70946;SDS011;58605;48.700;8.760;2023-10-13T01:55:44;7.83;;;5.53;;
70946;SDS011;58605;48.700;8.760;2023-10-13T01:58:10;8.17;;;4.70;;
70946;SDS011;58605;48.700;8.760;2023-10-13T02:04:09;7.80;;;4.50;;
70946;SDS011;58605;48.700;8.760;2023-10-13T02:06:36;12.70;;;5.30;;
70946;SDS011;58605;48.700;8.760;2023-10-13T02:09:03;7.50;;;4.53;;
70946;SDS011;58605;48.700;8.760;2023-10-13T02:11:43;8.37;;;5.23;;
70946;SDS011;58605;48.700;8.760;2023-10-13T02:14:12;9.00;;;4.30;;
70946;SDS011;58605;48.700;8.760;2023-10-13T02:16:42;10.50;;;4.83;;
70946;SDS011;58605;48.700;8.760;2023-10-13T02:19:12;7.67;;;5.00;;
70946;SDS011;58605;48.700;8.760;2023-10-13T02:21:41;9.13;;;5.27;;
70946;SDS011;58605;48.700;8.760;2023-10-13T02:24:10;7.23;;;4.67;;
70946;SDS011;58605;48.700;8.760;2023-10-13T02:26:44;11.17;;;4.90;;
70946;SDS011;58605;48.700;8.760;2023-10-13T02:29:11;6.90;;;4.67;;
70946;SDS011;58605;48.700;8.760;2023-10-13T02:31:43;5.33;;;4.27;;
70946;SDS011;58605;48.700;8.760;2023-10-13T02:34:22;6.90;;;4.90;;
70946;SDS011;58605;48.700;8.760;2023-10-13T02:36:48;9.07;;;5.10;;
70946;SDS011;58605;48.700;8.760;2023-10-13T02:39:15;7.10;;;4.33;;
70946;SDS011;58605;48.700;8.760;2023-10-13T02:41:41;7.00;;;4.47;;
70946;SDS011;58605;48.700;8.760;2023-10-13T02:44:15;8.13;;;4.37;;
70946;SDS011;58605;48.700;8.760;2023-10-13T02:46:56;7.83;;;4.53;;
70946;SDS011;58605;48.700;8.760;2023-10-13T02:49:24;6.47;;;4.60;;
70946;SDS011;58605;48.700;8.760;2023-10-13T02:51:51;5.00;;;4.40;;
70946;SDS011;58605;48.700;8.760;2023-10-13T02:54:18;7.83;;;4.50;;
70946;SDS011;58605;48.700;8.760;2023-10-13T02:56:44;8.20;;;5.00;;
70946;SDS011;58605;48.700;8.760;2023-10-13T02:59:26;7.13;;;4.40;;
70946;SDS011;58605;48.700;8.760;2023-10-13T03:02:11;9.27;;;4.40;;
70946;SDS011;58605;48.700;8.760;2023-10-13T03:04:43;6.97;;;4.80;;
70946;SDS011;58605;48.700;8.760;2023-10-13T03:07:10;6.13;;;4.40;;
70946;SDS011;58605;48.700;8.760;2023-10-13T03:09:38;10.07;;;5.07;;
70946;SDS011;58605;48.700;8.760;2023-10-13T03:12:05;11.57;;;5.37;;
70946;SDS011;58605;48.700;8.760;2023-10-13T03:14:34;7.77;;;4.73;;
70946;SDS011;58605;48.700;8.760;2023-10-13T03:17:01;7.83;;;5.63;;
70946;SDS011;58605;48.700;8.760;2023-10-13T03:19:32;10.27;;;5.20;;
70946;SDS011;58605;48.700;8.760;2023-10-13T03:21:59;7.73;;;4.77;;
70946;SDS011;58605;48.700;8.760;2023-10-13T03:24:34;8.13;;;5.10;;
70946;SDS011;58605;48.700;8.760;2023-10-13T03:27:00;6.67;;;4.77;;
70946;SDS011;58605;48.700;8.760;2023-10-13T03:29:48;7.67;;;5.07;;
70946;SDS011;58605;48.700;8.760;2023-10-13T03:32:21;8.97;;;5.23;;
70946;SDS011;58605;48.700;8.760;2023-10-13T03:34:51;9.23;;;4.80;;
70946;SDS011;58605;48.700;8.760;2023-10-13T03:37:17;8.43;;;4.87;;
70946;SDS011;58605;48.700;8.760;2023-10-13T03:40:02;10.63;;;5.10;;
70946;SDS011;58605;48.700;8.760;2023-10-13T03:42:49;6.87;;;4.93;;
70946;SDS011;58605;48.700;8.760;2023-10-13T03:45:31;8.77;;;5.30;;
70946;SDS011;58605;48.700;8.760;2023-10-13T03:48:05;10.03;;;4.50;;
70946;SDS011;58605;48.700;8.760;2023-10-13T03:50:34;7.77;;;4.83;;
70946;SDS011;58605;48.700;8.760;2023-10-13T03:53:01;8.47;;;4.77;;
70946;SDS011;58605;48.700;8.760;2023-10-13T03:55:28;7.17;;;4.20;;
70946;SDS011;58605;48.700;8.760;2023-10-13T03:57:54;7.10;;;4.33;;
70946;SDS011;58605;48.700;8.760;2023-10-13T04:00:21;6.67;;;3.87;;
70946;SDS011;58605;48.700;8.760;2023-10-13T04:02:53;9.53;;;4.70;;
70946;SDS011;58605;48.700;8.760;2023-10-13T04:05:34;7.07;;;4.87;;
70946;SDS011;58605;48.700;8.760;2023-10-13T04:08:12;11.17;;;4.27;;
70946;SDS011;58605;48.700;8.760;2023-10-13T04:10:53;8.40;;;4.17;;
70946;SDS011;58605;48.700;8.760;2023-10-13T04:13:21;8.67;;;4.07;;
70946;SDS011;58605;48.700;8.760;2023-10-13T04:16:07;6.93;;;4.07;;
70946;SDS011;58605;48.700;8.760;2023-10-13T04:18:50;7.20;;;4.50;;
70946;SDS011;58605;48.700;8.760;2023-10-13T04:21:25;6.57;;;4.33;;
70946;SDS011;58605;48.700;8.760;2023-10-13T04:24:03;5.43;;;4.07;;
70946;SDS011;58605;48.700;8.760;2023-10-13T04:26:42;8.17;;;4.77;;
70946;SDS011;58605;48.700;8.760;2023-10-13T04:29:27;10.50;;;4.17;;
70946;SDS011;58605;48.700;8.760;2023-10-13T04:32:11;9.83;;;4.13;;
70946;SDS011;58605;48.700;8.760;2023-10-13T04:34:40;6.70;;;4.50;;
70946;SDS011;58605;48.700;8.760;2023-10-13T04:37:11;6.10;;;3.80;;
70946;SDS011;58605;48.700;8.760;2023-10-13T04:39:55;9.47;;;4.37;;
70946;SDS011;58605;48.700;8.760;2023-10-13T04:42:37;9.17;;;4.10;;
70946;SDS011;58605;48.700;8.760;2023-10-13T04:45:16;8.80;;;3.63;;
70946;SDS011;58605;48.700;8.760;2023-10-13T04:47:57;9.10;;;4.47;;
70946;SDS011;58605;48.700;8.760;2023-10-13T04:50:41;8.27;;;4.03;;
70946;SDS011;58605;48.700;8.760;2023-10-13T04:53:13;7.03;;;4.00;;
70946;SDS011;58605;48.700;8.760;2023-10-13T04:55:57;6.80;;;4.70;;
70946;SDS011;58605;48.700;8.760;2023-10-13T04:58:52;6.07;;;4.53;;
70946;SDS011;58605;48.700;8.760;2023-10-13T05:01:37;9.37;;;4.80;;
70946;SDS011;58605;48.700;8.760;2023-10-13T05:04:15;7.80;;;5.47;;
70946;SDS011;58605;48.700;8.760;2023-10-13T05:06:57;9.03;;;4.80;;
70946;SDS011;58605;48.700;8.760;2023-10-13T05:09:46;5.87;;;4.13;;
70946;SDS011;58605;48.700;8.760;2023-10-13T05:12:31;5.40;;;3.77;;
70946;SDS011;58605;48.700;8.760;2023-10-13T05:15:15;7.23;;;4.23;;
70946;SDS011;58605;48.700;8.760;2023-10-13T05:18:00;7.27;;;3.83;;
70946;SDS011;58605;48.700;8.760;2023-10-13T05:20:44;6.87;;;4.67;;
70946;SDS011;58605;48.700;8.760;2023-10-13T05:23:30;8.93;;;4.53;;
70946;SDS011;58605;48.700;8.760;2023-10-13T05:26:15;6.23;;;3.87;;
70946;SDS011;58605;48.700;8.760;2023-10-13T05:28:59;8.33;;;4.67;;
70946;SDS011;58605;48.700;8.760;2023-10-13T05:31:44;8.17;;;4.07;;
70946;SDS011;58605;48.700;8.760;2023-10-13T05:34:28;8.20;;;4.20;;
70946;SDS011;58605;48.700;8.760;2023-10-13T05:37:27;6.80;;;3.97;;
70946;SDS011;58605;48.700;8.760;2023-10-13T05:40:13;7.03;;;3.73;;
70946;SDS011;58605;48.700;8.760;2023-10-13T05:42:58;8.83;;;4.00;;
70946;SDS011;58605;48.700;8.760;2023-10-13T05:45:42;6.20;;;3.70;;
70946;SDS011;58605;48.700;8.760;2023-10-13T05:48:27;8.20;;;4.47;;
70946;SDS011;58605;48.700;8.760;2023-10-13T05:51:28;8.27;;;4.27;;
70946;SDS011;58605;48.700;8.760;2023-10-13T05:53:58;6.30;;;4.07;;
70946;SDS011;58605;48.700;8.760;2023-10-13T05:56:55;12.27;;;3.63;;
70946;SDS011;58605;48.700;8.760;2023-10-13T05:59:39;4.67;;;3.87;;
70946;SDS011;58605;48.700;8.760;2023-10-13T06:02:24;8.70;;;4.30;;
70946;SDS011;58605;48.700;8.760;2023-10-13T06:05:09;5.77;;;3.90;;
70946;SDS011;58605;48.700;8.760;2023-10-13T06:07:56;8.30;;;3.60;;
70946;SDS011;58605;48.700;8.760;2023-10-13T06:10:41;13.97;;;4.67;;
70946;SDS011;58605;48.700;8.760;2023-10-13T06:13:28;6.27;;;3.60;;
70946;SDS011;58605;48.700;8.760;2023-10-13T06:16:14;7.53;;;4.07;;
70946;SDS011;58605;48.700;8.760;2023-10-13T06:18:59;5.83;;;3.47;;
70946;SDS011;58605;48.700;8.760;2023-10-13T06:21:44;8.47;;;4.50;;
70946;SDS011;58605;48.700;8.760;2023-10-13T06:24:29;5.70;;;3.90;;
70946;SDS011;58605;48.700;8.760;2023-10-13T06:27:14;7.53;;;4.03;;
70946;SDS011;58605;48.700;8.760;2023-10-13T06:30:01;6.57;;;3.80;;
70946;SDS011;58605;48.700;8.760;2023-10-13T06:32:28;7.40;;;4.37;;
70946;SDS011;58605;48.700;8.760;2023-10-13T06:34:54;6.17;;;4.00;;
70946;SDS011;58605;48.700;8.760;2023-10-13T06:37:24;5.60;;;3.87;;
70946;SDS011;58605;48.700;8.760;2023-10-13T06:39:58;7.20;;;4.10;;
70946;SDS011;58605;48.700;8.760;2023-10-13T06:42:31;6.90;;;5.07;;
70946;SDS011;58605;48.700;8.760;2023-10-13T06:45:01;7.03;;;4.13;;
70946;SDS011;58605;48.700;8.760;2023-10-13T06:47:28;9.30;;;4.90;;
70946;SDS011;58605;48.700;8.760;2023-10-13T06:49:54;8.37;;;4.30;;
70946;SDS011;58605;48.700;8.760;2023-10-13T06:52:21;7.63;;;3.77;;
70946;SDS011;58605;48.700;8.760;2023-10-13T06:54:49;8.40;;;4.63;;
70946;SDS011;58605;48.700;8.760;2023-10-13T06:57:22;8.03;;;3.73;;
70946;SDS011;58605;48.700;8.760;2023-10-13T06:59:48;5.17;;;3.80;;
70946;SDS011;58605;48.700;8.760;2023-10-13T07:02:18;5.57;;;4.00;;
70946;SDS011;58605;48.700;8.760;2023-10-13T07:04:47;8.10;;;4.17;;
70946;SDS011;58605;48.700;8.760;2023-10-13T07:07:13;7.27;;;2.97;;
70946;SDS011;58605;48.700;8.760;2023-10-13T07:09:41;7.87;;;3.23;;
70946;SDS011;58605;48.700;8.760;2023-10-13T07:12:14;6.73;;;4.30;;
70946;SDS011;58605;48.700;8.760;2023-10-13T07:14:58;7.23;;;4.47;;
70946;SDS011;58605;48.700;8.760;2023-10-13T07:17:46;12.83;;;5.13;;
70946;SDS011;58605;48.700;8.760;2023-10-13T07:20:12;9.20;;;4.67;;
70946;SDS011;58605;48.700;8.760;2023-10-13T07:22:53;6.63;;;4.00;;
70946;SDS011;58605;48.700;8.760;2023-10-13T07:25:28;7.43;;;4.70;;
70946;SDS011;58605;48.700;8.760;2023-10-13T07:27:57;5.70;;;3.50;;
70946;SDS011;58605;48.700;8.760;2023-10-13T07:30:24;9.70;;;5.23;;
70946;SDS011;58605;48.700;8.760;2023-10-13T07:32:54;13.70;;;4.80;;
70946;SDS011;58605;48.700;8.760;2023-10-13T07:35:25;5.03;;;3.40;;
70946;SDS011;58605;48.700;8.760;2023-10-13T07:37:51;9.60;;;5.37;;
70946;SDS011;58605;48.700;8.760;2023-10-13T07:40:20;6.17;;;4.07;;
70946;SDS011;58605;48.700;8.760;2023-10-13T07:42:52;8.97;;;3.83;;
70946;SDS011;58605;48.700;8.760;2023-10-13T07:45:36;8.27;;;3.80;;
70946;SDS011;58605;48.700;8.760;2023-10-13T07:48:04;6.50;;;4.50;;
70946;SDS011;58605;48.700;8.760;2023-10-13T07:50:37;6.53;;;3.60;;
70946;SDS011;58605;48.700;8.760;2023-10-13T07:53:04;7.47;;;3.83;;
70946;SDS011;58605;48.700;8.760;2023-10-13T07:55:47;9.50;;;3.93;;
70946;SDS011;58605;48.700;8.760;2023-10-13T07:58:20;4.17;;;2.77;;
70946;SDS011;58605;48.700;8.760;2023-10-13T08:00:50;8.00;;;3.23;;
70946;SDS011;58605;48.700;8.760;2023-10-13T08:03:33;7.93;;;3.30;;
70946;SDS011;58605;48.700;8.760;2023-10-13T08:06:05;6.57;;;3.87;;
70946;SDS011;58605;48.700;8.760;2023-10-13T08:08:31;6.10;;;3.63;;
70946;SDS011;58605;48.700;8.760;2023-10-13T08:11:04;9.27;;;3.90;;
70946;SDS011;58605;48.700;8.760;2023-10-13T08:13:36;6.07;;;3.00;;
70946;SDS011;58605;48.700;8.760;2023-10-13T08:16:03;7.90;;;4.03;;
70946;SDS011;58605;48.700;8.760;2023-10-13T08:18:47;7.70;;;4.37;;
70946;SDS011;58605;48.700;8.760;2023-10-13T08:21:14;7.43;;;3.57;;
70946;SDS011;58605;48.700;8.760;2023-10-13T08:23:43;6.43;;;3.67;;
70946;SDS011;58605;48.700;8.760;2023-10-13T08:26:19;6.07;;;2.83;;
70946;SDS011;58605;48.700;8.760;2023-10-13T08:29:00;10.13;;;4.20;;
70946;SDS011;58605;48.700;8.760;2023-10-13T08:31:46;6.73;;;3.43;;
70946;SDS011;58605;48.700;8.760;2023-10-13T08:34:33;4.33;;;2.70;;
70946;SDS011;58605;48.700;8.760;2023-10-13T08:37:08;9.10;;;3.57;;
70946;SDS011;58605;48.700;8.760;2023-10-13T08:39:46;6.50;;;2.95;;
70946;SDS011;58605;48.700;8.760;2023-10-13T08:42:28;3.60;;;2.40;;
70946;SDS011;58605;48.700;8.760;2023-10-13T08:45:04;3.10;;;2.47;;
70946;SDS011;58605;48.700;8.760;2023-10-13T08:47:45;3.33;;;2.40;;
70946;SDS011;58605;48.700;8.760;2023-10-13T08:50:20;4.03;;;2.93;;
70946;SDS011;58605;48.700;8.760;2023-10-13T08:53:18;6.93;;;3.27;;
70946;SDS011;58605;48.700;8.760;2023-10-13T08:55:52;4.97;;;2.60;;
70946;SDS011;58605;48.700;8.760;2023-10-13T08:58:28;3.10;;;2.47;;
70946;SDS011;58605;48.700;8.760;2023-10-13T09:01:14;4.53;;;2.88;;
70946;SDS011;58605;48.700;8.760;2023-10-13T09:04:00;4.67;;;3.20;;
70946;SDS011;58605;48.700;8.760;2023-10-13T09:06:46;5.00;;;2.37;;
70946;SDS011;58605;48.700;8.760;2023-10-13T09:09:28;6.07;;;3.30;;
70946;SDS011;58605;48.700;8.760;2023-10-13T09:12:10;6.23;;;2.53;;
70946;SDS011;58605;48.700;8.760;2023-10-13T09:14:36;3.93;;;2.57;;
70946;SDS011;58605;48.700;8.760;2023-10-13T09:17:08;4.63;;;2.43;;
70946;SDS011;58605;48.700;8.760;2023-10-13T09:19:46;4.20;;;2.57;;
70946;SDS011;58605;48.700;8.760;2023-10-13T09:22:21;6.80;;;2.93;;
70946;SDS011;58605;48.700;8.760;2023-10-13T09:24:55;3.40;;;2.50;;
70946;SDS011;58605;48.700;8.760;2023-10-13T09:27:26;5.53;;;3.00;;
70946;SDS011;58605;48.700;8.760;2023-10-13T09:29:59;3.67;;;2.50;;
70946;SDS011;58605;48.700;8.760;2023-10-13T09:32:35;10.70;;;2.80;;
70946;SDS011;58605;48.700;8.760;2023-10-13T09:35:11;4.72;;;2.45;;
70946;SDS011;58605;48.700;8.760;2023-10-13T09:37:53;6.70;;;2.97;;
70946;SDS011;58605;48.700;8.760;2023-10-13T09:40:22;5.20;;;2.57;;
70946;SDS011;58605;48.700;8.760;2023-10-13T09:43:11;3.97;;;2.83;;
70946;SDS011;58605;48.700;8.760;2023-10-13T09:45:43;4.40;;;2.63;;
70946;SDS011;58605;48.700;8.760;2023-10-13T09:48:31;4.25;;;2.65;;
70946;SDS011;58605;48.700;8.760;2023-10-13T09:50:59;7.85;;;2.83;;
70946;SDS011;58605;48.700;8.760;2023-10-13T09:53:29;6.97;;;2.90;;
70946;SDS011;58605;48.700;8.760;2023-10-13T09:55:59;6.30;;;2.83;;
70946;SDS011;58605;48.700;8.760;2023-10-13T09:58:46;7.23;;;2.73;;
70946;SDS011;58605;48.700;8.760;2023-10-13T10:01:21;5.97;;;2.83;;
70946;SDS011;58605;48.700;8.760;2023-10-13T10:04:06;4.33;;;2.50;;
70946;SDS011;58605;48.700;8.760;2023-10-13T10:06:34;3.30;;;1.97;;
70946;SDS011;58605;48.700;8.760;2023-10-13T10:09:06;5.38;;;2.97;;
70946;SDS011;58605;48.700;8.760;2023-10-13T10:11:48;5.18;;;2.58;;
70946;SDS011;58605;48.700;8.760;2023-10-13T10:14:39;5.72;;;2.78;;
70946;SDS011;58605;48.700;8.760;2023-10-13T10:17:21;10.30;;;3.27;;
70946;SDS011;58605;48.700;8.760;2023-10-13T10:19:48;3.57;;;2.67;;
70946;SDS011;58605;48.700;8.760;2023-10-13T10:22:25;7.07;;;2.63;;
70946;SDS011;58605;48.700;8.760;2023-10-13T10:24:57;2.40;;;1.87;;
70946;SDS011;58605;48.700;8.760;2023-10-13T10:27:24;11.83;;;2.43;;
70946;SDS011;58605;48.700;8.760;2023-10-13T10:29:52;8.30;;;2.67;;
70946;SDS011;58605;48.700;8.760;2023-10-13T10:32:19;3.43;;;2.37;;
70946;SDS011;58605;48.700;8.760;2023-10-13T10:34:45;4.13;;;2.77;;
70946;SDS011;58605;48.700;8.760;2023-10-13T10:37:12;3.90;;;2.30;;
70946;SDS011;58605;48.700;8.760;2023-10-13T10:39:39;5.57;;;2.30;;
70946;SDS011;58605;48.700;8.760;2023-10-13T10:42:14;7.77;;;2.10;;
70946;SDS011;58605;48.700;8.760;2023-10-13T10:44:41;4.67;;;2.30;;
70946;SDS011;58605;48.700;8.760;2023-10-13T10:47:13;2.40;;;2.20;;
70946;SDS011;58605;48.700;8.760;2023-10-13T10:50:24;3.83;;;2.13;;
70946;SDS011;58605;48.700;8.760;2023-10-13T10:53:00;4.45;;;2.20;;
70946;SDS011;58605;48.700;8.760;2023-10-13T10:55:34;9.98;;;2.50;;
70946;SDS011;58605;48.700;8.760;2023-10-13T10:58:03;7.00;;;2.87;;
70946;SDS011;58605;48.700;8.760;2023-10-13T11:01:03;4.60;;;2.13;;
70946;SDS011;58605;48.700;8.760;2023-10-13T11:03:35;6.88;;;2.53;;
70946;SDS011;58605;48.700;8.760;2023-10-13T11:06:11;2.55;;;1.95;;
70946;SDS011;58605;48.700;8.760;2023-10-13T11:08:43;6.15;;;2.80;;
70946;SDS011;58605;48.700;8.760;2023-10-13T11:11:27;6.05;;;2.78;;
70946;SDS011;58605;48.700;8.760;2023-10-13T11:14:00;3.60;;;2.08;;
70946;SDS011;58605;48.700;8.760;2023-10-13T11:16:47;4.88;;;2.63;;
70946;SDS011;58605;48.700;8.760;2023-10-13T11:19:33;3.92;;;2.05;;
70946;SDS011;58605;48.700;8.760;2023-10-13T11:22:09;5.70;;;2.58;;
70946;SDS011;58605;48.700;8.760;2023-10-13T11:24:39;5.60;;;2.05;;
70946;SDS011;58605;48.700;8.760;2023-10-13T11:27:13;9.18;;;2.53;;
70946;SDS011;58605;48.700;8.760;2023-10-13T11:29:48;4.00;;;2.65;;
70946;SDS011;58605;48.700;8.760;2023-10-13T11:32:17;5.53;;;2.80;;
70946;SDS011;58605;48.700;8.760;2023-10-13T11:34:46;6.35;;;2.65;;
70946;SDS011;58605;48.700;8.760;2023-10-13T11:37:17;6.05;;;2.95;;
70946;SDS011;58605;48.700;8.760;2023-10-13T11:40:03;6.72;;;3.15;;
70946;SDS011;58605;48.700;8.760;2023-10-13T11:42:35;5.95;;;2.25;;
70946;SDS011;58605;48.700;8.760;2023-10-13T11:45:03;6.03;;;2.55;;
70946;SDS011;58605;48.700;8.760;2023-10-13T11:47:48;5.57;;;2.25;;
70946;SDS011;58605;48.700;8.760;2023-10-13T11:50:24;5.05;;;2.60;;
70946;SDS011;58605;48.700;8.760;2023-10-13T11:52:58;3.95;;;2.78;;
70946;SDS011;58605;48.700;8.760;2023-10-13T11:55:25;12.93;;;2.47;;
70946;SDS011;58605;48.700;8.760;2023-10-13T11:57:51;5.55;;;2.65;;
70946;SDS011;58605;48.700;8.760;2023-10-13T12:00:19;3.75;;;1.95;;
70946;SDS011;58605;48.700;8.760;2023-10-13T12:03:11;3.22;;;2.03;;
70946;SDS011;58605;48.700;8.760;2023-10-13T12:05:56;9.27;;;3.05;;
70946;SDS011;58605;48.700;8.760;2023-10-13T12:08:40;3.08;;;2.25;;
70946;SDS011;58605;48.700;8.760;2023-10-13T12:11:14;6.18;;;2.78;;
70946;SDS011;58605;48.700;8.760;2023-10-13T12:13:55;6.28;;;2.90;;
70946;SDS011;58605;48.700;8.760;2023-10-13T12:16:23;7.45;;;3.10;;
70946;SDS011;58605;48.700;8.760;2023-10-13T12:18:59;5.07;;;2.45;;
70946;SDS011;58605;48.700;8.760;2023-10-13T12:21:26;5.55;;;2.67;;
70946;SDS011;58605;48.700;8.760;2023-10-13T12:23:54;4.25;;;2.22;;
70946;SDS011;58605;48.700;8.760;2023-10-13T12:26:20;4.07;;;2.42;;
70946;SDS011;58605;48.700;8.760;2023-10-13T12:28:57;5.95;;;3.08;;
70946;SDS011;58605;48.700;8.760;2023-10-13T12:31:33;7.07;;;2.80;;
70946;SDS011;58605;48.700;8.760;2023-10-13T12:34:04;7.15;;;2.95;;
70946;SDS011;58605;48.700;8.760;2023-10-13T12:36:39;4.60;;;2.53;;
70946;SDS011;58605;48.700;8.760;2023-10-13T12:39:18;5.65;;;2.50;;
70946;SDS011;58605;48.700;8.760;2023-10-13T12:42:03;5.45;;;2.50;;
70946;SDS011;58605;48.700;8.760;2023-10-13T12:44:47;5.35;;;2.90;;
70946;SDS011;58605;48.700;8.760;2023-10-13T12:47:34;7.18;;;2.20;;
70946;SDS011;58605;48.700;8.760;2023-10-13T12:50:18;10.35;;;3.03;;
70946;SDS011;58605;48.700;8.760;2023-10-13T12:53:09;6.72;;;2.92;;
70946;SDS011;58605;48.700;8.760;2023-10-13T12:55:39;8.18;;;2.67;;
70946;SDS011;58605;48.700;8.760;2023-10-13T12:58:05;6.78;;;3.42;;
70946;SDS011;58605;48.700;8.760;2023-10-13T13:00:32;7.07;;;3.05;;
70946;SDS011;58605;48.700;8.760;2023-10-13T13:03:00;7.88;;;2.50;;
70946;SDS011;58605;48.700;8.760;2023-10-13T13:05:36;3.80;;;2.50;;
70946;SDS011;58605;48.700;8.760;2023-10-13T13:08:09;4.00;;;2.42;;
70946;SDS011;58605;48.700;8.760;2023-10-13T13:10:37;4.53;;;2.60;;
70946;SDS011;58605;48.700;8.760;2023-10-13T13:13:04;3.70;;;2.30;;
70946;SDS011;58605;48.700;8.760;2023-10-13T13:15:30;7.78;;;3.20;;
70946;SDS011;58605;48.700;8.760;2023-10-13T13:17:56;7.57;;;3.17;;
70946;SDS011;58605;48.700;8.760;2023-10-13T13:20:25;3.95;;;2.65;;
70946;SDS011;58605;48.700;8.760;2023-10-13T13:22:53;6.75;;;2.85;;
70946;SDS011;58605;48.700;8.760;2023-10-13T13:25:20;4.55;;;2.55;;
70946;SDS011;58605;48.700;8.760;2023-10-13T13:27:55;3.75;;;2.60;;
70946;SDS011;58605;48.700;8.760;2023-10-13T13:30:23;4.50;;;2.80;;
70946;SDS011;58605;48.700;8.760;2023-10-13T13:32:55;6.13;;;2.60;;
70946;SDS011;58605;48.700;8.760;2023-10-13T13:35:25;3.78;;;2.78;;
70946;SDS011;58605;48.700;8.760;2023-10-13T13:37:58;4.97;;;2.55;;
70946;SDS011;58605;48.700;8.760;2023-10-13T13:40:31;9.93;;;2.90;;
70946;SDS011;58605;48.700;8.760;2023-10-13T13:43:00;3.50;;;2.55;;
70946;SDS011;58605;48.700;8.760;2023-10-13T13:45:26;4.35;;;2.72;;
70946;SDS011;58605;48.700;8.760;2023-10-13T13:47:57;4.78;;;2.58;;
70946;SDS011;58605;48.700;8.760;2023-10-13T13:50:25;5.20;;;2.45;;
70946;SDS011;58605;48.700;8.760;2023-10-13T13:52:54;7.43;;;3.10;;
70946;SDS011;58605;48.700;8.760;2023-10-13T13:55:21;5.22;;;2.60;;
70946;SDS011;58605;48.700;8.760;2023-10-13T13:57:48;7.38;;;3.20;;
70946;SDS011;58605;48.700;8.760;2023-10-13T14:00:16;7.65;;;3.28;;
70946;SDS011;58605;48.700;8.760;2023-10-13T14:02:46;4.93;;;2.78;;
70946;SDS011;58605;48.700;8.760;2023-10-13T14:05:14;8.18;;;3.20;;
70946;SDS011;58605;48.700;8.760;2023-10-13T14:07:42;4.35;;;2.80;;
70946;SDS011;58605;48.700;8.760;2023-10-13T14:10:14;7.38;;;2.80;;
70946;SDS011;58605;48.700;8.760;2023-10-13T14:12:56;4.43;;;2.53;;
70946;SDS011;58605;48.700;8.760;2023-10-13T14:15:32;4.55;;;2.08;;
70946;SDS011;58605;48.700;8.760;2023-10-13T14:18:05;3.28;;;2.58;;
70946;SDS011;58605;48.700;8.760;2023-10-13T14:20:32;8.80;;;3.05;;
70946;SDS011;58605;48.700;8.760;2023-10-13T14:23:06;4.68;;;3.03;;
70946;SDS011;58605;48.700;8.760;2023-10-13T14:25:35;6.35;;;2.42;;
70946;SDS011;58605;48.700;8.760;2023-10-13T14:28:03;4.50;;;2.60;;
70946;SDS011;58605;48.700;8.760;2023-10-13T14:30:30;5.10;;;2.65;;
70946;SDS011;58605;48.700;8.760;2023-10-13T14:32:56;6.20;;;2.83;;
70946;SDS011;58605;48.700;8.760;2023-10-13T14:35:23;5.68;;;2.90;;
70946;SDS011;58605;48.700;8.760;2023-10-13T14:37:51;8.50;;;2.92;;
70946;SDS011;58605;48.700;8.760;2023-10-13T14:40:18;10.75;;;2.92;;
70946;SDS011;58605;48.700;8.760;2023-10-13T14:42:46;5.30;;;2.13;;
70946;SDS011;58605;48.700;8.760;2023-10-13T14:45:13;4.32;;;2.38;;
70946;SDS011;58605;48.700;8.760;2023-10-13T14:47:42;6.90;;;2.90;;
70946;SDS011;58605;48.700;8.760;2023-10-13T14:50:08;4.72;;;2.70;;
70946;SDS011;58605;48.700;8.760;2023-10-13T14:52:45;7.05;;;2.33;;
70946;SDS011;58605;48.700;8.760;2023-10-13T14:55:11;3.53;;;2.50;;
70946;SDS011;58605;48.700;8.760;2023-10-13T14:57:45;5.57;;;2.15;;
70946;SDS011;58605;48.700;8.760;2023-10-13T15:00:12;10.85;;;3.30;;
70946;SDS011;58605;48.700;8.760;2023-10-13T15:02:39;6.78;;;3.10;;
70946;SDS011;58605;48.700;8.760;2023-10-13T15:05:08;3.95;;;1.80;;
70946;SDS011;58605;48.700;8.760;2023-10-13T15:07:41;3.72;;;2.05;;
70946;SDS011;58605;48.700;8.760;2023-10-13T15:10:10;6.95;;;3.58;;
70946;SDS011;58605;48.700;8.760;2023-10-13T15:12:40;5.95;;;1.92;;
70946;SDS011;58605;48.700;8.760;2023-10-13T15:15:08;4.50;;;2.05;;
70946;SDS011;58605;48.700;8.760;2023-10-13T15:17:46;5.30;;;2.97;;
70946;SDS011;58605;48.700;8.760;2023-10-13T15:20:22;7.40;;;3.22;;
70946;SDS011;58605;48.700;8.760;2023-10-13T15:22:48;6.38;;;2.53;;
70946;SDS011;58605;48.700;8.760;2023-10-13T15:25:15;3.58;;;2.17;;
70946;SDS011;58605;48.700;8.760;2023-10-13T15:27:53;4.88;;;2.15;;
70946;SDS011;58605;48.700;8.760;2023-10-13T15:30:23;4.80;;;3.40;;